createdAt,value
2018-07-13T00:02:22.089Z,6.87
2018-07-13T00:04:50.534Z,6.40
2018-07-13T00:07:19.973Z,6.77
2018-07-13T00:09:48.426Z,7.30
2018-07-13T00:12:16.808Z,6.77
2018-07-13T00:14:56.339Z,6.10
2018-07-13T00:17:24.829Z,5.90
2018-07-13T00:19:53.278Z,6.27
2018-07-13T00:22:21.661Z,5.40
2018-07-13T00:24:50.097Z,6.37
2018-07-13T00:27:18.596Z,6.10
2018-07-13T00:29:47.001Z,6.47
2018-07-13T00:32:15.448Z,6.27
2018-07-13T00:34:43.931Z,6.33
2018-07-13T00:37:12.477Z,6.63
2018-07-13T00:39:41.032Z,6.87
2018-07-13T00:42:09.543Z,7.87
2018-07-13T00:44:38.037Z,7.10
2018-07-13T00:47:06.506Z,7.97
2018-07-13T00:49:34.971Z,7.57
2018-07-13T00:52:03.390Z,8.03
2018-07-13T00:54:31.852Z,8.30
2018-07-13T00:57:00.344Z,7.20
2018-07-13T00:59:28.856Z,7.03
2018-07-13T01:01:57.274Z,8.43
2018-07-13T01:04:25.759Z,8.53
2018-07-13T01:06:54.230Z,8.50
2018-07-13T01:09:22.666Z,9.23
2018-07-13T01:11:51.227Z,8.57
2018-07-13T01:14:19.685Z,9.77
2018-07-13T01:16:48.132Z,9.13
2018-07-13T01:19:16.533Z,10.10
2018-07-13T01:21:44.973Z,9.43
2018-07-13T01:24:13.453Z,9.63
2018-07-13T01:26:41.941Z,10.33
2018-07-13T01:29:10.476Z,10.97
2018-07-13T01:31:38.991Z,11.17
2018-07-13T01:34:07.514Z,9.90
2018-07-13T01:36:36.024Z,10.03
2018-07-13T01:39:06.023Z,10.00
2018-07-13T01:41:34.573Z,10.93
2018-07-13T01:44:03.092Z,11.27
2018-07-13T01:46:31.572Z,12.27
2018-07-13T01:49:00.144Z,12.17
2018-07-13T01:51:28.745Z,11.80
2018-07-13T01:53:57.186Z,12.47
2018-07-13T01:56:25.838Z,12.37
2018-07-13T01:58:54.332Z,13.07
2018-07-13T02:01:22.813Z,13.40
2018-07-13T02:03:51.371Z,15.20
2018-07-13T02:06:19.823Z,14.50
2018-07-13T02:08:48.281Z,13.87
2018-07-13T02:11:16.770Z,14.17
2018-07-13T02:13:45.222Z,16.03
2018-07-13T02:16:13.664Z,15.53
2018-07-13T02:18:42.411Z,16.40
2018-07-13T02:21:10.849Z,15.90
2018-07-13T02:23:39.277Z,17.10
2018-07-13T02:26:07.801Z,16.60
2018-07-13T02:28:36.207Z,16.53
2018-07-13T02:31:04.709Z,16.40
2018-07-13T02:33:33.184Z,18.33
2018-07-13T02:36:01.587Z,19.33
2018-07-13T02:38:29.974Z,20.43
2018-07-13T02:40:58.701Z,19.07
2018-07-13T02:43:27.169Z,18.80
2018-07-13T02:45:55.600Z,19.57
2018-07-13T02:48:24.142Z,19.73
2018-07-13T02:50:52.568Z,19.00
2018-07-13T02:53:21.028Z,20.13
2018-07-13T02:55:49.465Z,20.60
2018-07-13T02:58:18.014Z,19.83
2018-07-13T03:00:46.475Z,21.67
2018-07-13T03:03:14.906Z,22.73
2018-07-13T03:05:43.366Z,26.00
2018-07-13T03:08:11.789Z,26.97
2018-07-13T03:10:40.293Z,27.00
2018-07-13T03:13:08.714Z,26.43
2018-07-13T03:15:37.230Z,26.90
2018-07-13T03:18:05.848Z,31.83
2018-07-13T03:20:34.329Z,33.37
2018-07-13T03:23:02.899Z,31.83
2018-07-13T03:25:31.366Z,32.47
2018-07-13T03:28:00.259Z,34.47
2018-07-13T03:30:28.721Z,34.93
2018-07-13T03:32:57.163Z,32.73
2018-07-13T03:35:25.561Z,34.00
2018-07-13T03:37:53.981Z,34.60
2018-07-13T03:40:22.547Z,32.07
2018-07-13T03:42:50.990Z,33.40
2018-07-13T03:45:19.462Z,35.53
2018-07-13T03:47:47.963Z,34.60
2018-07-13T03:50:16.499Z,34.07
2018-07-13T03:52:44.953Z,33.87
2018-07-13T03:55:13.481Z,33.17
2018-07-13T03:57:41.943Z,35.07
2018-07-13T04:00:10.412Z,36.23
2018-07-13T04:02:38.793Z,36.53
2018-07-13T04:05:07.263Z,38.63
2018-07-13T04:07:35.734Z,39.03
2018-07-13T04:10:04.267Z,40.20
2018-07-13T04:12:32.836Z,41.17
2018-07-13T04:15:01.383Z,40.07
2018-07-13T04:17:30.080Z,42.27
2018-07-13T04:19:58.585Z,37.07
2018-07-13T04:22:27.086Z,35.87
2018-07-13T04:24:55.695Z,37.43
2018-07-13T04:27:24.332Z,36.47
2018-07-13T04:29:52.971Z,39.07
2018-07-13T04:32:21.500Z,36.93
2018-07-13T04:34:49.917Z,39.00
2018-07-13T04:37:19.424Z,40.03
2018-07-13T04:39:47.865Z,41.33
2018-07-13T04:42:16.327Z,42.77
2018-07-13T04:44:44.806Z,43.13
2018-07-13T04:47:13.333Z,44.07
2018-07-13T04:49:41.907Z,42.97
2018-07-13T04:52:10.505Z,42.97
2018-07-13T04:54:39.106Z,44.23
2018-07-13T04:57:07.762Z,43.60
2018-07-13T04:59:36.343Z,43.57
2018-07-13T05:02:04.899Z,43.80
2018-07-13T05:04:33.478Z,45.20
2018-07-13T05:07:02.074Z,48.37
2018-07-13T05:09:30.787Z,46.70
2018-07-13T05:11:59.322Z,47.03
2018-07-13T05:14:27.718Z,48.90
2018-07-13T05:16:56.219Z,48.13
2018-07-13T05:19:24.653Z,44.90
2018-07-13T05:21:53.796Z,43.97
2018-07-13T05:24:23.662Z,44.60
2018-07-13T05:26:52.493Z,52.23
2018-07-13T05:29:22.740Z,48.40
2018-07-13T05:31:53.307Z,43.23
2018-07-13T05:34:21.825Z,42.03
2018-07-13T05:36:50.305Z,44.73
2018-07-13T05:39:18.767Z,50.17
2018-07-13T05:41:47.225Z,52.53
2018-07-13T05:44:15.763Z,50.93
2018-07-13T05:46:44.220Z,50.60
2018-07-13T05:49:12.636Z,49.47
2018-07-13T05:51:41.100Z,49.10
2018-07-13T05:54:09.867Z,45.17
2018-07-13T05:56:38.398Z,44.53
2018-07-13T05:59:06.857Z,43.40
2018-07-13T06:01:35.315Z,49.17
2018-07-13T06:04:03.961Z,47.70
2018-07-13T06:06:32.471Z,45.47
2018-07-13T06:09:01.039Z,47.17
2018-07-13T06:11:29.769Z,51.23
2018-07-13T06:13:58.223Z,52.83
2018-07-13T06:16:26.706Z,50.00
2018-07-13T06:18:55.185Z,51.83
2018-07-13T06:21:23.625Z,50.70
2018-07-13T06:23:52.052Z,50.63
2018-07-13T06:26:20.463Z,51.93
2018-07-13T06:28:49.406Z,49.53
2018-07-13T06:31:17.878Z,51.93
2018-07-13T06:33:46.310Z,49.37
2018-07-13T06:36:14.777Z,48.30
2018-07-13T06:38:43.318Z,47.17
2018-07-13T06:41:11.866Z,48.50
2018-07-13T06:43:40.578Z,49.50
2018-07-13T06:46:09.020Z,50.67
2018-07-13T06:48:37.451Z,48.63
2018-07-13T06:51:05.909Z,52.23
2018-07-13T06:53:34.366Z,51.83
2018-07-13T06:56:02.838Z,49.87
2018-07-13T06:58:42.555Z,49.13
2018-07-13T07:01:11.010Z,47.47
2018-07-13T07:04:43.231Z,45.97
2018-07-13T07:07:16.318Z,43.60
2018-07-13T07:09:50.906Z,42.13
2018-07-13T07:12:26.921Z,39.33
2018-07-13T07:14:55.481Z,38.77
2018-07-13T07:17:24.017Z,37.97
2018-07-13T07:19:52.439Z,36.90
2018-07-13T07:22:20.878Z,36.03
2018-07-13T07:24:49.315Z,35.43
2018-07-13T07:27:17.737Z,33.13
2018-07-13T07:29:46.168Z,36.60
2018-07-13T07:32:14.650Z,36.23
2018-07-13T07:34:43.039Z,36.83
2018-07-13T07:37:11.523Z,39.20
2018-07-13T07:39:39.929Z,49.07
2018-07-13T07:42:08.368Z,50.33
2018-07-13T07:44:36.908Z,49.67
2018-07-13T07:47:05.324Z,51.70
2018-07-13T07:49:33.883Z,53.73
2018-07-13T07:52:02.415Z,55.20
2018-07-13T07:54:30.796Z,56.13
2018-07-13T07:56:59.204Z,57.30
2018-07-13T07:59:27.630Z,57.33
2018-07-13T08:01:56.061Z,58.30
2018-07-13T08:04:24.510Z,55.80
2018-07-13T08:06:53.636Z,55.43
2018-07-13T08:09:21.784Z,56.53
2018-07-13T08:11:50.196Z,57.50
2018-07-13T08:14:18.648Z,56.50
2018-07-13T08:16:47.102Z,58.60
2018-07-13T08:19:15.507Z,58.10
2018-07-13T08:21:44.928Z,59.53
2018-07-13T08:24:17.957Z,54.93
2018-07-13T08:26:46.539Z,54.67
2018-07-13T08:29:16.423Z,53.47
2018-07-13T08:31:44.833Z,52.50
2018-07-13T08:34:13.346Z,48.47
2018-07-13T08:36:41.897Z,46.87
2018-07-13T08:39:10.419Z,44.63
2018-07-13T08:41:38.906Z,43.20
2018-07-13T08:44:07.454Z,37.73
2018-07-13T08:46:35.887Z,34.80
2018-07-13T08:49:04.338Z,41.17
2018-07-13T08:51:32.795Z,39.57
2018-07-13T08:54:01.292Z,37.60
2018-07-13T08:56:29.757Z,34.23
2018-07-13T08:58:58.321Z,35.40
2018-07-13T09:01:26.756Z,31.87
2018-07-13T09:03:56.000Z,33.33
2018-07-13T09:06:24.566Z,35.97
2018-07-13T09:08:53.074Z,37.73
2018-07-13T09:11:21.703Z,35.13
2018-07-13T09:13:50.669Z,36.80
2018-07-13T09:16:19.191Z,37.80
2018-07-13T09:18:47.648Z,36.57
2018-07-13T09:21:16.109Z,36.83
2018-07-13T09:23:44.576Z,36.60
2018-07-13T09:26:13.061Z,35.77
2018-07-13T09:28:41.705Z,35.00
2018-07-13T09:31:10.427Z,35.80
2018-07-13T09:33:38.999Z,33.33
2018-07-13T09:36:07.661Z,35.87
2018-07-13T09:38:36.149Z,33.63
2018-07-13T09:41:04.573Z,32.27
2018-07-13T09:43:33.115Z,30.33
2018-07-13T09:46:01.581Z,31.00
2018-07-13T09:48:30.140Z,32.67
2018-07-13T09:50:58.701Z,34.93
2018-07-13T09:53:27.457Z,30.93
2018-07-13T09:55:55.864Z,30.50
2018-07-13T09:58:34.561Z,31.43
2018-07-13T10:01:08.245Z,31.03
2018-07-13T10:03:36.758Z,29.00
2018-07-13T10:06:05.274Z,26.33
2018-07-13T10:08:34.331Z,24.67
2018-07-13T10:11:02.860Z,26.73
2018-07-13T10:13:31.522Z,25.33
2018-07-13T10:16:00.024Z,26.10
2018-07-13T10:18:28.587Z,24.73
2018-07-13T10:20:59.554Z,24.40
2018-07-13T10:23:28.669Z,25.33
2018-07-13T10:26:01.504Z,25.50
2018-07-13T10:28:30.182Z,25.30
2018-07-13T10:30:58.780Z,21.70
2018-07-13T10:33:27.436Z,22.70
2018-07-13T10:35:56.868Z,23.10
2018-07-13T10:38:25.288Z,24.00
2018-07-13T10:40:53.776Z,22.80
2018-07-13T10:43:22.166Z,22.47
2018-07-13T10:45:50.670Z,24.10
2018-07-13T10:48:19.041Z,24.57
2018-07-13T10:50:47.765Z,26.30
2018-07-13T10:53:16.163Z,31.70
2018-07-13T10:55:44.641Z,30.13
2018-07-13T10:58:13.104Z,28.47
2018-07-13T11:00:41.502Z,29.47
2018-07-13T11:03:10.104Z,29.90
2018-07-13T11:05:38.509Z,28.73
2018-07-13T11:08:06.954Z,29.63
2018-07-13T11:10:35.421Z,31.30
2018-07-13T11:13:03.911Z,30.97
2018-07-13T11:15:32.350Z,31.93
2018-07-13T11:18:00.892Z,30.90
2018-07-13T11:20:29.354Z,32.17
2018-07-13T11:22:57.868Z,30.63
2018-07-13T11:25:26.340Z,29.07
2018-07-13T11:27:54.734Z,30.20
2018-07-13T11:30:23.168Z,28.87
2018-07-13T11:32:51.593Z,28.37
2018-07-13T11:35:20.124Z,28.07
2018-07-13T11:37:48.534Z,29.50
2018-07-13T11:40:22.037Z,31.00
2018-07-13T11:42:50.761Z,30.57
2018-07-13T11:45:19.302Z,33.03
2018-07-13T11:47:47.732Z,32.50
2018-07-13T11:50:16.582Z,32.30
2018-07-13T11:52:45.060Z,31.87
2018-07-13T11:55:13.621Z,29.53
2018-07-13T11:57:42.228Z,27.80
2018-07-13T12:00:10.903Z,26.87
2018-07-13T12:02:39.453Z,27.97
2018-07-13T12:05:07.915Z,26.77
2018-07-13T12:07:36.471Z,27.33
2018-07-13T12:10:04.875Z,25.20
2018-07-13T12:12:33.479Z,24.93
2018-07-13T12:15:02.007Z,24.80
2018-07-13T12:17:30.614Z,24.73
2018-07-13T12:19:59.282Z,23.87
2018-07-13T12:22:27.674Z,23.93
2018-07-13T12:24:56.142Z,22.53
2018-07-13T12:27:24.593Z,21.23
2018-07-13T12:29:53.032Z,21.67
2018-07-13T12:32:21.496Z,22.23
2018-07-13T12:34:49.895Z,19.83
2018-07-13T12:37:18.355Z,20.43
2018-07-13T12:39:46.911Z,19.90
2018-07-13T12:42:15.279Z,20.87
2018-07-13T12:44:43.718Z,20.10
2018-07-13T12:47:12.129Z,19.07
2018-07-13T12:49:40.534Z,19.77
2018-07-13T12:52:09.003Z,20.00
2018-07-13T12:54:37.571Z,19.73
2018-07-13T12:57:06.115Z,19.80
2018-07-13T12:59:34.679Z,21.07
2018-07-13T13:02:03.076Z,19.30
2018-07-13T13:04:31.587Z,19.77
2018-07-13T13:07:00.114Z,20.03
2018-07-13T13:09:28.668Z,20.90
2018-07-13T13:11:57.167Z,19.30
2018-07-13T13:14:25.580Z,18.73
2018-07-13T13:16:54.216Z,17.20
2018-07-13T13:19:22.746Z,16.83
2018-07-13T13:21:51.208Z,16.23
2018-07-13T13:24:19.862Z,14.93
2018-07-13T13:26:48.342Z,16.20
2018-07-13T13:29:17.018Z,15.20
2018-07-13T13:31:45.471Z,15.27
2018-07-13T13:34:13.949Z,12.73
2018-07-13T13:36:42.430Z,12.77
2018-07-13T13:39:10.913Z,13.87
2018-07-13T13:41:39.368Z,13.63
2018-07-13T13:44:08.075Z,12.17
2018-07-13T13:46:36.737Z,12.53
2018-07-13T13:49:05.338Z,12.40
2018-07-13T13:51:33.785Z,12.53
2018-07-13T13:54:02.243Z,12.17
2018-07-13T13:56:33.970Z,12.23
2018-07-13T13:59:02.615Z,11.67
2018-07-13T14:01:31.006Z,11.30
2018-07-13T14:03:59.845Z,11.83
2018-07-13T14:06:28.441Z,11.67
2018-07-13T14:08:56.861Z,12.27
2018-07-13T14:11:25.284Z,9.83
2018-07-13T14:13:53.748Z,9.60
2018-07-13T14:16:22.108Z,9.90
2018-07-13T14:18:50.581Z,10.60
2018-07-13T14:21:19.055Z,10.90
2018-07-13T14:23:47.527Z,9.70
2018-07-13T14:26:15.906Z,9.20
2018-07-13T14:28:44.468Z,9.60
2018-07-13T14:31:12.974Z,9.83
2018-07-13T14:33:41.468Z,10.53
2018-07-13T14:36:09.933Z,9.53
2018-07-13T14:38:38.409Z,9.23
2018-07-13T14:41:06.929Z,10.40
2018-07-13T14:43:35.303Z,10.17
2018-07-13T14:46:03.962Z,9.43
2018-07-13T14:48:32.356Z,10.13
2018-07-13T14:51:00.823Z,9.93
2018-07-13T14:53:29.317Z,9.87
2018-07-13T14:55:57.774Z,10.20
2018-07-13T14:58:26.200Z,9.13
2018-07-13T15:00:54.653Z,9.50
2018-07-13T15:03:23.081Z,8.77
2018-07-13T15:05:51.609Z,9.27
2018-07-13T15:08:19.906Z,8.20
2018-07-13T15:10:48.381Z,8.77
2018-07-13T15:13:16.864Z,8.60
2018-07-13T15:15:45.474Z,8.40
2018-07-13T15:18:13.870Z,8.67
2018-07-13T15:20:42.300Z,8.93
2018-07-13T15:23:10.786Z,8.03
2018-07-13T15:25:39.380Z,8.57
2018-07-13T15:28:07.949Z,7.83
2018-07-13T15:30:36.356Z,8.13
2018-07-13T15:33:04.785Z,8.00
2018-07-13T15:35:33.284Z,8.10
2018-07-13T15:38:01.782Z,7.97
2018-07-13T15:40:30.296Z,7.63
2018-07-13T15:42:58.903Z,7.77
2018-07-13T15:45:27.524Z,7.77
2018-07-13T15:47:55.965Z,7.17
2018-07-13T15:50:31.764Z,6.63
2018-07-13T15:53:00.205Z,6.60
2018-07-13T15:55:32.953Z,6.97
2018-07-13T15:58:02.035Z,6.60
2018-07-13T16:00:31.084Z,7.23
2018-07-13T16:02:59.646Z,7.70
2018-07-13T16:05:28.166Z,7.27
2018-07-13T16:07:56.636Z,7.67
2018-07-13T16:10:25.987Z,6.90
2018-07-13T16:12:54.377Z,7.17
2018-07-13T16:15:22.848Z,6.97
2018-07-13T16:17:51.432Z,5.63
2018-07-13T16:20:20.158Z,6.23
2018-07-13T16:22:48.669Z,5.93
2018-07-13T16:25:17.166Z,5.63
2018-07-13T16:27:45.973Z,5.97
2018-07-13T16:30:14.558Z,5.93
2018-07-13T16:32:43.043Z,5.67
2018-07-13T16:35:11.457Z,5.47
2018-07-13T16:37:40.109Z,5.67
2018-07-13T16:40:08.771Z,6.23
2018-07-13T16:42:37.252Z,6.27
2018-07-13T16:45:05.865Z,7.00
2018-07-13T16:47:34.281Z,5.83
2018-07-13T16:50:02.864Z,6.53
2018-07-13T16:52:31.462Z,7.27
2018-07-13T16:54:59.989Z,7.53
2018-07-13T16:57:29.197Z,7.87
2018-07-13T16:59:57.682Z,7.60
2018-07-13T17:02:26.124Z,8.80
2018-07-13T17:04:54.577Z,8.77
2018-07-13T17:07:23.165Z,7.70
2018-07-13T17:09:51.602Z,8.10
2018-07-13T17:12:20.084Z,8.53
2018-07-13T17:14:48.559Z,8.63
2018-07-13T17:17:17.446Z,8.40
2018-07-13T17:19:45.959Z,9.13
2018-07-13T17:22:14.533Z,8.47
2018-07-13T17:24:42.996Z,9.07
2018-07-13T17:27:11.612Z,10.40
2018-07-13T17:29:40.288Z,9.90
2018-07-13T17:32:08.789Z,10.07
2018-07-13T17:34:37.342Z,10.43
2018-07-13T17:37:04.739Z,10.00
2018-07-13T17:39:33.192Z,10.80
2018-07-13T17:42:01.588Z,11.17
2018-07-13T17:44:30.028Z,11.73
2018-07-13T17:46:58.544Z,11.23
2018-07-13T17:49:27.090Z,10.73
2018-07-13T17:51:55.634Z,10.87
2018-07-13T17:54:24.084Z,10.07
2018-07-13T17:56:52.660Z,10.57
2018-07-13T17:59:21.121Z,10.73
2018-07-13T18:01:49.492Z,9.13
2018-07-13T18:04:17.923Z,10.13
2018-07-13T18:06:46.406Z,8.47
2018-07-13T18:09:14.884Z,8.70
2018-07-13T18:11:43.276Z,8.93
2018-07-13T18:14:11.752Z,7.37
2018-07-13T18:16:40.333Z,7.73
2018-07-13T18:19:09.189Z,8.03
2018-07-13T18:21:38.649Z,7.63
2018-07-13T18:24:07.343Z,7.67
2018-07-13T18:26:35.734Z,7.43
2018-07-13T18:29:04.175Z,6.53
2018-07-13T18:31:32.596Z,6.47
2018-07-13T18:34:01.264Z,6.77
2018-07-13T18:36:29.743Z,7.00
2018-07-13T18:38:58.556Z,6.43
2018-07-13T18:41:27.130Z,5.97
2018-07-13T18:43:55.601Z,5.50
2018-07-13T18:46:24.029Z,6.07
2018-07-13T18:48:52.688Z,5.33
2018-07-13T18:51:21.108Z,5.53
2018-07-13T18:53:49.639Z,5.40
2018-07-13T18:56:18.118Z,5.97
2018-07-13T18:58:46.630Z,5.30
2018-07-13T19:01:14.992Z,5.90
2018-07-13T19:03:43.497Z,6.10
2018-07-13T19:06:11.893Z,5.83
2018-07-13T19:08:41.192Z,5.43
2018-07-13T19:11:09.737Z,5.77
2018-07-13T19:13:38.190Z,6.10
2018-07-13T19:16:06.686Z,5.83
2018-07-13T19:18:35.065Z,5.73
2018-07-13T19:21:03.504Z,6.00
2018-07-13T19:23:31.899Z,5.73
2018-07-13T19:26:00.245Z,5.60
2018-07-13T19:28:28.636Z,6.10
2018-07-13T19:30:57.356Z,5.73
2018-07-13T19:33:25.709Z,5.63
2018-07-13T19:35:54.160Z,5.03
2018-07-13T19:38:22.657Z,5.50
2018-07-13T19:40:51.039Z,5.97
2018-07-13T19:43:19.429Z,5.70
2018-07-13T19:45:48.792Z,5.27
2018-07-13T19:50:51.909Z,5.60
2018-07-13T19:53:20.339Z,5.63
2018-07-13T19:55:48.718Z,5.30
2018-07-13T19:58:17.172Z,6.07
2018-07-13T20:00:45.729Z,5.77
2018-07-13T20:03:14.387Z,5.43
2018-07-13T20:05:42.897Z,4.80
2018-07-13T20:08:11.261Z,5.87
2018-07-13T20:10:39.710Z,5.33
2018-07-13T20:13:08.168Z,5.30
2018-07-13T20:15:36.987Z,6.13
2018-07-13T20:18:05.428Z,5.93
2018-07-13T20:20:34.068Z,5.77
2018-07-13T20:23:02.588Z,5.90
2018-07-13T20:25:31.084Z,5.80
2018-07-13T20:27:59.537Z,5.57
2018-07-13T20:30:27.992Z,5.67
2018-07-13T20:32:56.486Z,6.00
2018-07-13T20:35:24.889Z,5.67
2018-07-13T20:37:53.452Z,5.97
2018-07-13T20:40:21.874Z,5.73
2018-07-13T20:42:50.421Z,6.17
2018-07-13T20:45:18.810Z,6.80
2018-07-13T20:47:47.318Z,5.83
2018-07-13T20:50:15.878Z,6.93
2018-07-13T20:52:44.418Z,6.23
2018-07-13T20:55:12.880Z,6.50
2018-07-13T20:57:41.432Z,6.00
2018-07-13T21:00:09.953Z,5.80
2018-07-13T21:02:38.382Z,6.10
2018-07-13T21:05:06.907Z,6.53
2018-07-13T21:07:35.353Z,6.47
2018-07-13T21:10:03.959Z,6.83
2018-07-13T21:12:32.339Z,6.07
2018-07-13T21:15:00.888Z,6.37
2018-07-13T21:17:29.343Z,6.27
2018-07-13T21:19:57.783Z,6.60
2018-07-13T21:22:26.174Z,6.67
2018-07-13T21:24:55.455Z,6.67
2018-07-13T21:27:23.948Z,7.03
2018-07-13T21:29:52.575Z,7.20
2018-07-13T21:32:21.005Z,6.97
2018-07-13T21:34:49.705Z,6.73
2018-07-13T21:37:18.101Z,6.53
2018-07-13T21:39:46.586Z,7.17
2018-07-13T21:42:15.041Z,7.87
2018-07-13T21:44:43.437Z,7.23
2018-07-13T21:49:54.744Z,7.30
2018-07-13T21:52:23.166Z,8.80
2018-07-13T21:54:51.542Z,7.40
2018-07-13T21:57:19.945Z,7.50
2018-07-13T21:59:48.364Z,7.43
2018-07-13T22:02:16.809Z,8.00
2018-07-13T22:04:45.218Z,8.33
2018-07-13T22:07:13.616Z,8.60
2018-07-13T22:09:42.074Z,7.90
2018-07-13T22:12:10.483Z,8.00
2018-07-13T22:14:39.100Z,7.87
2018-07-13T22:17:07.489Z,8.83
2018-07-13T22:19:35.944Z,8.50
2018-07-13T22:22:04.795Z,8.77
2018-07-13T22:24:33.578Z,8.73
2018-07-13T22:27:02.020Z,8.23
2018-07-13T22:29:30.430Z,8.93
2018-07-13T22:31:59.049Z,8.20
2018-07-13T22:34:27.517Z,8.47
2018-07-13T22:36:55.954Z,8.27
2018-07-13T22:39:24.803Z,9.27
2018-07-13T22:41:53.230Z,8.40
2018-07-13T22:44:22.362Z,8.53
2018-07-13T22:46:50.877Z,8.57
2018-07-13T22:49:19.321Z,8.37
2018-07-13T22:51:47.787Z,8.47
2018-07-13T22:54:16.232Z,9.00
2018-07-13T22:56:44.945Z,9.67
2018-07-13T22:59:13.380Z,8.83
2018-07-13T23:01:41.912Z,9.13
2018-07-13T23:04:10.318Z,8.53
2018-07-13T23:06:39.128Z,9.70
2018-07-13T23:09:07.971Z,9.40
2018-07-13T23:11:36.445Z,9.37
2018-07-13T23:14:04.917Z,9.73
2018-07-13T23:16:33.377Z,9.87
2018-07-13T23:19:01.800Z,9.87
2018-07-13T23:21:30.185Z,8.93
2018-07-13T23:23:58.796Z,9.17
2018-07-13T23:26:27.285Z,10.13
2018-07-13T23:28:55.765Z,9.20
2018-07-13T23:31:24.182Z,9.87
2018-07-13T23:33:52.574Z,10.30
2018-07-13T23:36:21.031Z,9.53
2018-07-13T23:38:49.458Z,9.90
2018-07-13T23:41:17.825Z,10.40
2018-07-13T23:43:46.209Z,10.07
2018-07-13T23:46:14.620Z,9.57
2018-07-13T23:48:43.024Z,10.37
2018-07-13T23:51:11.401Z,10.57
2018-07-13T23:53:39.953Z,9.83
2018-07-13T23:56:08.341Z,10.07
2018-07-13T23:58:36.940Z,10.20
